Ocqueoc, Michigan
Current Conditions -  °F | °C
As of 11:54 PM on Monday 22 Dec 2014 (Local Time) from KPZQ Reporting Station
Overcast Overcast  
Wind Chill: 27°   Ceiling: 2100
Heat Index: 33°   Visibility: 7mi
Dew Point: 30°   Wind: 6mph
Humidity: 91%   Direction: 110°ESE
Pressure: 29.97"   Gusts: NA
Location:  45.412°N, 84.1131°W
Report Text: KPZQ 230454Z AUTO 11005KT 7SM OVC021 00/M01 A2997 RMK AO2 T00031010
Loading
Personal Weather Stations






























Interactive Weather Map New forecast layout! Learn more

10-Day Weather Forecast

Advertisements
Track Severe Weather on mobile